Lexa Maersk — OYYL2 — position and weather

sailwx.info

Track history (hours):
 
Tides and Currents Weather Stations Pressure Air Temp Water Temp Dewpoint Dewpoint Depression Visibility Wind Speed Wind Dir Waves Ship Positions

Lexa Maersk

Last reported at 2015-Feb-22 11:31 UTC. Time now 2015-Mar-03 00:30 UTC.
Position S 26°45' E 153°28'.
Warning: this ship's position is 8 days out of date.

Length 265.8 m; beam 37.3 m; draft 14 m.

Type: Ship (hazmat cat A). MMSI: 219979000.

Date/timePositionNaut miles runAvg speedWind from/ knotsBaromVisibWave heightAir tempDewpointWater temp
2015-Feb-22 11:31S 26°45' E 153°28'1616.5
2015-Feb-22 10:34S 26°43' E 153°11'1616.0
2015-Feb-22 09:34S 26°59' E 153°14'1616.2
2015-Feb-22 08:34S 27°14' E 153°20'1111.2
2015-Feb-22 07:34S 27°22' E 153°11'0 0.1
2015-Feb-22 06:33S 27°22' E 153°11'0 0.0
2015-Feb-22 05:33S 27°22' E 153°11'0 0.0
2015-Feb-22 04:33S 27°22' E 153°11'0 0.0
2015-Feb-22 03:33S 27°22' E 153°11'0 0.0
2015-Feb-22 02:30S 27°22' E 153°11'0 0.0
2015-Feb-22 01:33S 27°22' E 153°11'0 0.0
2015-Feb-22 00:33S 27°22' E 153°11'0 0.0
2015-Feb-21 23:33S 27°22' E 153°11'0 0.0
2015-Feb-21 22:33S 27°22' E 153°11'0 0.0
2015-Feb-21 21:33S 27°22' E 153°11'0 0.0
2015-Feb-21 20:33S 27°22' E 153°11'0 0.0
2015-Feb-21 19:33S 27°22' E 153°11'0 0.0
2015-Feb-21 18:33S 27°22' E 153°11'0 0.0
2015-Feb-21 17:33S 27°22' E 153°11'0 0.0
2015-Feb-21 16:33S 27°22' E 153°11'0 0.0
2015-Feb-21 15:33S 27°22' E 153°11'0 0.0
2015-Feb-21 14:33S 27°22' E 153°11'0 0.0
2015-Feb-21 13:33S 27°22' E 153°11'0 0.0
2015-Feb-21 12:33S 27°22' E 153°11'0 0.0
2015-Feb-21 11:33S 27°22' E 153°11'0 0.0
2015-Feb-21 10:33S 27°22' E 153°11'8 8.2
2015-Feb-21 09:34S 27°16' E 153°17'1313.1
2015-Feb-21 08:34S 27°03' E 153°16'1514.5
2015-Feb-21 07:34S 26°49' E 153°10'9 8.5
2015-Feb-21 06:33S 26°42' E 153°15'4 3.3
2015-Feb-21 05:29S 26°43' E 153°19'0 0.1
2015-Feb-21 04:32S 26°43' E 153°19'0 0.0
2015-Feb-21 03:32S 26°43' E 153°19'0 0.0
2015-Feb-21 02:32S 26°43' E 153°19'0 0.0
2015-Feb-21 01:32S 26°43' E 153°19'0 0.1
2015-Feb-21 00:32S 26°43' E 153°19'0 0.1
2015-Feb-20 23:32S 26°43' E 153°19'4 4.0
2015-Feb-20 22:33S 26°40' E 153°21'3 3.4
2015-Feb-20 21:33S 26°43' E 153°23'5 5.0
2015-Feb-20 20:33S 26°47' E 153°21'3 3.2
2015-Feb-20 19:33S 26°44' E 153°22'6 5.9
2015-Feb-20 18:33S 26°42' E 153°28'11 3.6
2015-Feb-20 15:21S 26°33' E 153°20'5 5.7
2015-Feb-20 14:33S 26°30' E 153°16'  
Track history (hours):
 
Tides and Currents Weather Stations Pressure Air Temp Water Temp Dewpoint Dewpoint Depression Visibility Wind Speed Wind Dir Waves Ship Positions

Lexa Maersk

Last reported at 2015-Feb-22 11:31 UTC. Time now 2015-Mar-03 00:30 UTC.
Position S 26°45' E 153°28'.
Warning: this ship's position is 8 days out of date.

Length 265.8 m; beam 37.3 m; draft 14 m.

Type: Ship (hazmat cat A). MMSI: 219979000.

Date/timePositionNaut miles runAvg speedWind from/ knotsBaromVisibWave heightAir tempDewpointWater temp
2015-Feb-22 11:31S 26°45' E 153°28'1616.5
2015-Feb-22 10:34S 26°43' E 153°11'1616.0
2015-Feb-22 09:34S 26°59' E 153°14'1616.2
2015-Feb-22 08:34S 27°14' E 153°20'1111.2
2015-Feb-22 07:34S 27°22' E 153°11'0 0.1
2015-Feb-22 06:33S 27°22' E 153°11'0 0.0
2015-Feb-22 05:33S 27°22' E 153°11'0 0.0
2015-Feb-22 04:33S 27°22' E 153°11'0 0.0
2015-Feb-22 03:33S 27°22' E 153°11'0 0.0
2015-Feb-22 02:30S 27°22' E 153°11'0 0.0
2015-Feb-22 01:33S 27°22' E 153°11'0 0.0
2015-Feb-22 00:33S 27°22' E 153°11'0 0.0
2015-Feb-21 23:33S 27°22' E 153°11'0 0.0
2015-Feb-21 22:33S 27°22' E 153°11'0 0.0
2015-Feb-21 21:33S 27°22' E 153°11'0 0.0
2015-Feb-21 20:33S 27°22' E 153°11'0 0.0
2015-Feb-21 19:33S 27°22' E 153°11'0 0.0
2015-Feb-21 18:33S 27°22' E 153°11'0 0.0
2015-Feb-21 17:33S 27°22' E 153°11'0 0.0
2015-Feb-21 16:33S 27°22' E 153°11'0 0.0
2015-Feb-21 15:33S 27°22' E 153°11'0 0.0
2015-Feb-21 14:33S 27°22' E 153°11'0 0.0
2015-Feb-21 13:33S 27°22' E 153°11'0 0.0
2015-Feb-21 12:33S 27°22' E 153°11'0 0.0
2015-Feb-21 11:33S 27°22' E 153°11'0 0.0
2015-Feb-21 10:33S 27°22' E 153°11'8 8.2
2015-Feb-21 09:34S 27°16' E 153°17'1313.1
2015-Feb-21 08:34S 27°03' E 153°16'1514.5
2015-Feb-21 07:34S 26°49' E 153°10'9 8.5
2015-Feb-21 06:33S 26°42' E 153°15'4 3.3
2015-Feb-21 05:29S 26°43' E 153°19'0 0.1
2015-Feb-21 04:32S 26°43' E 153°19'0 0.0
2015-Feb-21 03:32S 26°43' E 153°19'0 0.0
2015-Feb-21 02:32S 26°43' E 153°19'0 0.0
2015-Feb-21 01:32S 26°43' E 153°19'0 0.1
2015-Feb-21 00:32S 26°43' E 153°19'0 0.1
2015-Feb-20 23:32S 26°43' E 153°19'4 4.0
2015-Feb-20 22:33S 26°40' E 153°21'3 3.4
2015-Feb-20 21:33S 26°43' E 153°23'5 5.0
2015-Feb-20 20:33S 26°47' E 153°21'3 3.2
2015-Feb-20 19:33S 26°44' E 153°22'6 5.9
2015-Feb-20 18:33S 26°42' E 153°28'11 3.6
2015-Feb-20 15:21S 26°33' E 153°20'5 5.7
2015-Feb-20 14:33S 26°30' E 153°16'  

Dump ship's entire track history